sensor_id;sensor_type;location;lat;lon;timestamp;P1;P2;P0
48887;PMS5003;42598;53.802;-1.632;2023-03-03T00:00:58;1;1;
48887;PMS5003;42598;53.802;-1.632;2023-03-03T00:03:25;0;0;
48887;PMS5003;42598;53.802;-1.632;2023-03-03T00:05:52;0;0;
48887;PMS5003;42598;53.802;-1.632;2023-03-03T00:08:19;1;1;
48887;PMS5003;42598;53.802;-1.632;2023-03-03T00:10:47;0;0;
48887;PMS5003;42598;53.802;-1.632;2023-03-03T00:13:16;0;0;
48887;PMS5003;42598;53.802;-1.632;2023-03-03T00:15:45;0;0;
48887;PMS5003;42598;53.802;-1.632;2023-03-03T00:18:17;0;0;
48887;PMS5003;42598;53.802;-1.632;2023-03-03T00:20:48;0;0;
48887;PMS5003;42598;53.802;-1.632;2023-03-03T00:23:20;0;0;
48887;PMS5003;42598;53.802;-1.632;2023-03-03T00:25:55;0;0;
48887;PMS5003;42598;53.802;-1.632;2023-03-03T00:28:25;0;0;
48887;PMS5003;42598;53.802;-1.632;2023-03-03T00:30:55;0;0;
48887;PMS5003;42598;53.802;-1.632;2023-03-03T00:33:26;0;0;
48887;PMS5003;42598;53.802;-1.632;2023-03-03T00:35:55;0;0;
48887;PMS5003;42598;53.802;-1.632;2023-03-03T00:38:23;0;0;
48887;PMS5003;42598;53.802;-1.632;2023-03-03T00:40:50;1;1;
48887;PMS5003;42598;53.802;-1.632;2023-03-03T00:43:18;1;0;
48887;PMS5003;42598;53.802;-1.632;2023-03-03T00:45:48;1;0;
48887;PMS5003;42598;53.802;-1.632;2023-03-03T00:48:25;0;0;
48887;PMS5003;42598;53.802;-1.632;2023-03-03T00:50:53;0;0;
48887;PMS5003;42598;53.802;-1.632;2023-03-03T00:53:22;1;0;
48887;PMS5003;42598;53.802;-1.632;2023-03-03T00:55:51;0;0;
48887;PMS5003;42598;53.802;-1.632;2023-03-03T00:58:19;1;0;
48887;PMS5003;42598;53.802;-1.632;2023-03-03T01:00:48;0;0;
48887;PMS5003;42598;53.802;-1.632;2023-03-03T01:03:17;0;0;
48887;PMS5003;42598;53.802;-1.632;2023-03-03T01:05:45;2;1;
48887;PMS5003;42598;53.802;-1.632;2023-03-03T01:08:13;0;0;
48887;PMS5003;42598;53.802;-1.632;2023-03-03T01:10:42;0;0;
48887;PMS5003;42598;53.802;-1.632;2023-03-03T01:13:13;0;0;
48887;PMS5003;42598;53.802;-1.632;2023-03-03T01:15:40;0;0;
48887;PMS5003;42598;53.802;-1.632;2023-03-03T01:18:07;0;0;
48887;PMS5003;42598;53.802;-1.632;2023-03-03T01:20:35;0;0;
48887;PMS5003;42598;53.802;-1.632;2023-03-03T01:23:03;0;0;
48887;PMS5003;42598;53.802;-1.632;2023-03-03T01:25:31;0;0;
48887;PMS5003;42598;53.802;-1.632;2023-03-03T01:27:58;0;0;
48887;PMS5003;42598;53.802;-1.632;2023-03-03T01:30:25;0;0;
48887;PMS5003;42598;53.802;-1.632;2023-03-03T01:32:53;0;0;
48887;PMS5003;42598;53.802;-1.632;2023-03-03T01:35:20;0;0;
48887;PMS5003;42598;53.802;-1.632;2023-03-03T01:37:48;0;0;
48887;PMS5003;42598;53.802;-1.632;2023-03-03T01:40:16;0;0;
48887;PMS5003;42598;53.802;-1.632;2023-03-03T01:42:45;0;0;
48887;PMS5003;42598;53.802;-1.632;2023-03-03T01:45:14;0;0;
48887;PMS5003;42598;53.802;-1.632;2023-03-03T01:47:44;0;0;
48887;PMS5003;42598;53.802;-1.632;2023-03-03T01:50:19;0;0;
48887;PMS5003;42598;53.802;-1.632;2023-03-03T01:52:55;0;0;
48887;PMS5003;42598;53.802;-1.632;2023-03-03T01:55:27;0;0;
48887;PMS5003;42598;53.802;-1.632;2023-03-03T01:57:59;0;0;
48887;PMS5003;42598;53.802;-1.632;2023-03-03T02:00:31;0;0;
48887;PMS5003;42598;53.802;-1.632;2023-03-03T02:02:59;0;0;
48887;PMS5003;42598;53.802;-1.632;2023-03-03T02:05:27;0;0;
48887;PMS5003;42598;53.802;-1.632;2023-03-03T02:07:54;0;0;
48887;PMS5003;42598;53.802;-1.632;2023-03-03T02:10:21;0;0;
48887;PMS5003;42598;53.802;-1.632;2023-03-03T02:12:50;1;1;
48887;PMS5003;42598;53.802;-1.632;2023-03-03T02:15:20;0;0;
48887;PMS5003;42598;53.802;-1.632;2023-03-03T02:17:49;0;0;
48887;PMS5003;42598;53.802;-1.632;2023-03-03T02:20:24;0;0;
48887;PMS5003;42598;53.802;-1.632;2023-03-03T02:23:01;0;0;
48887;PMS5003;42598;53.802;-1.632;2023-03-03T02:25:35;1;1;
48887;PMS5003;42598;53.802;-1.632;2023-03-03T02:28:08;1;1;
48887;PMS5003;42598;53.802;-1.632;2023-03-03T02:30:37;0;0;
48887;PMS5003;42598;53.802;-1.632;2023-03-03T02:33:05;0;0;
48887;PMS5003;42598;53.802;-1.632;2023-03-03T02:35:33;0;0;
48887;PMS5003;42598;53.802;-1.632;2023-03-03T02:38:13;1;1;
48887;PMS5003;42598;53.802;-1.632;2023-03-03T02:40:50;0;0;
48887;PMS5003;42598;53.802;-1.632;2023-03-03T02:43:27;1;1;
48887;PMS5003;42598;53.802;-1.632;2023-03-03T02:45:59;0;0;
48887;PMS5003;42598;53.802;-1.632;2023-03-03T02:48:26;0;0;
48887;PMS5003;42598;53.802;-1.632;2023-03-03T02:50:53;1;1;
48887;PMS5003;42598;53.802;-1.632;2023-03-03T02:53:20;0;0;
48887;PMS5003;42598;53.802;-1.632;2023-03-03T02:55:46;0;0;
48887;PMS5003;42598;53.802;-1.632;2023-03-03T02:58:13;1;0;
48887;PMS5003;42598;53.802;-1.632;2023-03-03T03:00:40;0;0;
48887;PMS5003;42598;53.802;-1.632;2023-03-03T03:03:07;0;0;
48887;PMS5003;42598;53.802;-1.632;2023-03-03T03:05:34;0;0;
48887;PMS5003;42598;53.802;-1.632;2023-03-03T03:08:00;0;0;
48887;PMS5003;42598;53.802;-1.632;2023-03-03T03:10:28;0;0;
48887;PMS5003;42598;53.802;-1.632;2023-03-03T03:12:55;0;0;
48887;PMS5003;42598;53.802;-1.632;2023-03-03T03:15:22;0;0;
48887;PMS5003;42598;53.802;-1.632;2023-03-03T03:17:49;1;1;
48887;PMS5003;42598;53.802;-1.632;2023-03-03T03:20:16;0;0;
48887;PMS5003;42598;53.802;-1.632;2023-03-03T03:22:44;0;0;
48887;PMS5003;42598;53.802;-1.632;2023-03-03T03:25:11;0;0;
48887;PMS5003;42598;53.802;-1.632;2023-03-03T03:27:38;0;0;
48887;PMS5003;42598;53.802;-1.632;2023-03-03T03:30:05;0;0;
48887;PMS5003;42598;53.802;-1.632;2023-03-03T03:32:33;0;0;
48887;PMS5003;42598;53.802;-1.632;2023-03-03T03:35:00;1;1;
48887;PMS5003;42598;53.802;-1.632;2023-03-03T03:37:26;1;1;
48887;PMS5003;42598;53.802;-1.632;2023-03-03T03:39:53;0;0;
48887;PMS5003;42598;53.802;-1.632;2023-03-03T03:42:20;0;0;
48887;PMS5003;42598;53.802;-1.632;2023-03-03T03:44:47;1;1;
48887;PMS5003;42598;53.802;-1.632;2023-03-03T03:47:14;0;0;
48887;PMS5003;42598;53.802;-1.632;2023-03-03T03:49:40;2;1;
48887;PMS5003;42598;53.802;-1.632;2023-03-03T03:52:07;0;0;
48887;PMS5003;42598;53.802;-1.632;2023-03-03T03:54:34;2;2;
48887;PMS5003;42598;53.802;-1.632;2023-03-03T03:57:01;1;1;
48887;PMS5003;42598;53.802;-1.632;2023-03-03T03:59:29;1;1;
48887;PMS5003;42598;53.802;-1.632;2023-03-03T04:01:55;1;1;
48887;PMS5003;42598;53.802;-1.632;2023-03-03T04:04:22;2;1;
48887;PMS5003;42598;53.802;-1.632;2023-03-03T04:06:49;1;1;
48887;PMS5003;42598;53.802;-1.632;2023-03-03T04:09:17;1;1;
48887;PMS5003;42598;53.802;-1.632;2023-03-03T04:11:43;1;1;
48887;PMS5003;42598;53.802;-1.632;2023-03-03T04:14:10;1;1;
48887;PMS5003;42598;53.802;-1.632;2023-03-03T04:16:37;1;1;
48887;PMS5003;42598;53.802;-1.632;2023-03-03T04:19:04;2;2;
48887;PMS5003;42598;53.802;-1.632;2023-03-03T04:21:31;1;1;
48887;PMS5003;42598;53.802;-1.632;2023-03-03T04:23:57;1;1;
48887;PMS5003;42598;53.802;-1.632;2023-03-03T04:26:24;1;1;
48887;PMS5003;42598;53.802;-1.632;2023-03-03T04:28:51;1;1;
48887;PMS5003;42598;53.802;-1.632;2023-03-03T04:31:18;2;2;
48887;PMS5003;42598;53.802;-1.632;2023-03-03T04:33:45;1;1;
48887;PMS5003;42598;53.802;-1.632;2023-03-03T04:36:12;0;0;
48887;PMS5003;42598;53.802;-1.632;2023-03-03T04:38:38;1;1;
48887;PMS5003;42598;53.802;-1.632;2023-03-03T04:41:05;1;1;
48887;PMS5003;42598;53.802;-1.632;2023-03-03T04:43:32;2;2;
48887;PMS5003;42598;53.802;-1.632;2023-03-03T04:45:59;2;2;
48887;PMS5003;42598;53.802;-1.632;2023-03-03T04:48:27;2;2;
48887;PMS5003;42598;53.802;-1.632;2023-03-03T04:50:53;1;1;
48887;PMS5003;42598;53.802;-1.632;2023-03-03T04:53:21;2;2;
48887;PMS5003;42598;53.802;-1.632;2023-03-03T04:55:48;1;1;
48887;PMS5003;42598;53.802;-1.632;2023-03-03T04:58:16;2;2;
48887;PMS5003;42598;53.802;-1.632;2023-03-03T05:00:43;2;2;
48887;PMS5003;42598;53.802;-1.632;2023-03-03T05:03:10;3;2;
48887;PMS5003;42598;53.802;-1.632;2023-03-03T05:05:39;2;2;
48887;PMS5003;42598;53.802;-1.632;2023-03-03T05:08:06;1;1;
48887;PMS5003;42598;53.802;-1.632;2023-03-03T05:10:33;3;2;
48887;PMS5003;42598;53.802;-1.632;2023-03-03T05:13:00;2;2;
48887;PMS5003;42598;53.802;-1.632;2023-03-03T05:15:27;3;3;
48887;PMS5003;42598;53.802;-1.632;2023-03-03T05:17:54;2;2;
48887;PMS5003;42598;53.802;-1.632;2023-03-03T05:20:21;1;1;
48887;PMS5003;42598;53.802;-1.632;2023-03-03T05:22:48;3;2;
48887;PMS5003;42598;53.802;-1.632;2023-03-03T05:25:15;3;3;
48887;PMS5003;42598;53.802;-1.632;2023-03-03T05:27:43;2;2;
48887;PMS5003;42598;53.802;-1.632;2023-03-03T05:30:11;1;1;
48887;PMS5003;42598;53.802;-1.632;2023-03-03T05:32:38;2;2;
48887;PMS5003;42598;53.802;-1.632;2023-03-03T05:35:05;3;2;
48887;PMS5003;42598;53.802;-1.632;2023-03-03T05:37:33;5;4;
48887;PMS5003;42598;53.802;-1.632;2023-03-03T05:39:59;2;2;
48887;PMS5003;42598;53.802;-1.632;2023-03-03T05:42:26;3;3;
48887;PMS5003;42598;53.802;-1.632;2023-03-03T05:44:53;4;4;
48887;PMS5003;42598;53.802;-1.632;2023-03-03T05:47:20;2;2;
48887;PMS5003;42598;53.802;-1.632;2023-03-03T05:49:47;4;3;
48887;PMS5003;42598;53.802;-1.632;2023-03-03T05:52:13;3;3;
48887;PMS5003;42598;53.802;-1.632;2023-03-03T05:54:40;2;2;
48887;PMS5003;42598;53.802;-1.632;2023-03-03T05:57:07;2;2;
48887;PMS5003;42598;53.802;-1.632;2023-03-03T05:59:34;2;1;
48887;PMS5003;42598;53.802;-1.632;2023-03-03T06:02:01;3;3;
48887;PMS5003;42598;53.802;-1.632;2023-03-03T06:04:27;3;3;
48887;PMS5003;42598;53.802;-1.632;2023-03-03T06:06:54;4;3;
48887;PMS5003;42598;53.802;-1.632;2023-03-03T06:09:21;3;3;
48887;PMS5003;42598;53.802;-1.632;2023-03-03T06:11:48;4;4;
48887;PMS5003;42598;53.802;-1.632;2023-03-03T06:14:15;5;5;
48887;PMS5003;42598;53.802;-1.632;2023-03-03T06:16:42;3;3;
48887;PMS5003;42598;53.802;-1.632;2023-03-03T06:19:08;2;2;
48887;PMS5003;42598;53.802;-1.632;2023-03-03T06:21:35;4;4;
48887;PMS5003;42598;53.802;-1.632;2023-03-03T06:24:02;5;5;
48887;PMS5003;42598;53.802;-1.632;2023-03-03T06:26:30;4;3;
48887;PMS5003;42598;53.802;-1.632;2023-03-03T06:28:58;4;4;
48887;PMS5003;42598;53.802;-1.632;2023-03-03T06:31:25;4;4;
48887;PMS5003;42598;53.802;-1.632;2023-03-03T06:33:53;5;5;
48887;PMS5003;42598;53.802;-1.632;2023-03-03T06:36:20;5;5;
48887;PMS5003;42598;53.802;-1.632;2023-03-03T06:38:46;3;3;
48887;PMS5003;42598;53.802;-1.632;2023-03-03T06:41:13;5;5;
48887;PMS5003;42598;53.802;-1.632;2023-03-03T06:43:40;5;5;
48887;PMS5003;42598;53.802;-1.632;2023-03-03T06:46:07;5;5;
48887;PMS5003;42598;53.802;-1.632;2023-03-03T06:48:34;5;5;
48887;PMS5003;42598;53.802;-1.632;2023-03-03T06:51:01;6;6;
48887;PMS5003;42598;53.802;-1.632;2023-03-03T06:53:38;7;6;
48887;PMS5003;42598;53.802;-1.632;2023-03-03T06:56:07;6;5;
48887;PMS5003;42598;53.802;-1.632;2023-03-03T06:58:35;6;6;
48887;PMS5003;42598;53.802;-1.632;2023-03-03T07:01:02;5;5;
48887;PMS5003;42598;53.802;-1.632;2023-03-03T07:03:38;7;6;
48887;PMS5003;42598;53.802;-1.632;2023-03-03T07:06:07;7;6;
48887;PMS5003;42598;53.802;-1.632;2023-03-03T07:08:45;6;6;
48887;PMS5003;42598;53.802;-1.632;2023-03-03T07:11:15;8;8;
48887;PMS5003;42598;53.802;-1.632;2023-03-03T07:13:45;8;8;
48887;PMS5003;42598;53.802;-1.632;2023-03-03T07:16:14;6;5;
48887;PMS5003;42598;53.802;-1.632;2023-03-03T07:18:45;6;6;
48887;PMS5003;42598;53.802;-1.632;2023-03-03T07:21:17;9;8;
48887;PMS5003;42598;53.802;-1.632;2023-03-03T07:23:46;8;8;
48887;PMS5003;42598;53.802;-1.632;2023-03-03T07:26:15;7;7;
48887;PMS5003;42598;53.802;-1.632;2023-03-03T07:28:44;10;10;
48887;PMS5003;42598;53.802;-1.632;2023-03-03T07:31:24;17;15;
48887;PMS5003;42598;53.802;-1.632;2023-03-03T07:33:55;9;9;
48887;PMS5003;42598;53.802;-1.632;2023-03-03T07:36:26;10;9;
48887;PMS5003;42598;53.802;-1.632;2023-03-03T07:38:56;10;10;
48887;PMS5003;42598;53.802;-1.632;2023-03-03T07:41:26;9;9;
48887;PMS5003;42598;53.802;-1.632;2023-03-03T07:43:57;13;10;
48887;PMS5003;42598;53.802;-1.632;2023-03-03T07:46:34;7;7;
48887;PMS5003;42598;53.802;-1.632;2023-03-03T07:49:10;10;8;
48887;PMS5003;42598;53.802;-1.632;2023-03-03T07:51:47;10;8;
48887;PMS5003;42598;53.802;-1.632;2023-03-03T07:54:25;6;6;
48887;PMS5003;42598;53.802;-1.632;2023-03-03T07:56:55;10;10;
48887;PMS5003;42598;53.802;-1.632;2023-03-03T07:59:26;12;12;
48887;PMS5003;42598;53.802;-1.632;2023-03-03T08:01:53;10;10;
48887;PMS5003;42598;53.802;-1.632;2023-03-03T08:04:23;9;9;
48887;PMS5003;42598;53.802;-1.632;2023-03-03T08:06:55;9;9;
48887;PMS5003;42598;53.802;-1.632;2023-03-03T08:09:28;7;7;
48887;PMS5003;42598;53.802;-1.632;2023-03-03T08:12:05;7;6;
48887;PMS5003;42598;53.802;-1.632;2023-03-03T08:14:43;7;7;
48887;PMS5003;42598;53.802;-1.632;2023-03-03T08:17:12;8;8;
48887;PMS5003;42598;53.802;-1.632;2023-03-03T08:19:43;8;7;
48887;PMS5003;42598;53.802;-1.632;2023-03-03T08:22:11;8;7;
48887;PMS5003;42598;53.802;-1.632;2023-03-03T08:24:41;8;7;
48887;PMS5003;42598;53.802;-1.632;2023-03-03T08:27:08;8;8;
48887;PMS5003;42598;53.802;-1.632;2023-03-03T08:29:36;10;8;
48887;PMS5003;42598;53.802;-1.632;2023-03-03T08:32:03;7;7;
48887;PMS5003;42598;53.802;-1.632;2023-03-03T08:34:30;7;7;
48887;PMS5003;42598;53.802;-1.632;2023-03-03T08:36:57;8;7;
48887;PMS5003;42598;53.802;-1.632;2023-03-03T08:39:24;7;6;
48887;PMS5003;42598;53.802;-1.632;2023-03-03T08:41:51;6;6;
48887;PMS5003;42598;53.802;-1.632;2023-03-03T08:44:18;6;6;
48887;PMS5003;42598;53.802;-1.632;2023-03-03T08:46:45;7;6;
48887;PMS5003;42598;53.802;-1.632;2023-03-03T08:49:12;7;7;
48887;PMS5003;42598;53.802;-1.632;2023-03-03T08:51:40;10;9;
48887;PMS5003;42598;53.802;-1.632;2023-03-03T08:54:07;8;8;
48887;PMS5003;42598;53.802;-1.632;2023-03-03T08:56:34;7;7;
48887;PMS5003;42598;53.802;-1.632;2023-03-03T08:59:01;8;8;
48887;PMS5003;42598;53.802;-1.632;2023-03-03T09:01:28;8;7;
48887;PMS5003;42598;53.802;-1.632;2023-03-03T09:03:55;6;6;
48887;PMS5003;42598;53.802;-1.632;2023-03-03T09:06:22;7;7;
48887;PMS5003;42598;53.802;-1.632;2023-03-03T09:08:50;7;6;
48887;PMS5003;42598;53.802;-1.632;2023-03-03T09:11:21;8;7;
48887;PMS5003;42598;53.802;-1.632;2023-03-03T09:13:51;6;6;
48887;PMS5003;42598;53.802;-1.632;2023-03-03T09:16:25;6;6;
48887;PMS5003;42598;53.802;-1.632;2023-03-03T09:18:59;5;5;
48887;PMS5003;42598;53.802;-1.632;2023-03-03T09:21:44;6;6;
48887;PMS5003;42598;53.802;-1.632;2023-03-03T09:24:14;9;6;
48887;PMS5003;42598;53.802;-1.632;2023-03-03T09:26:49;4;4;
48887;PMS5003;42598;53.802;-1.632;2023-03-03T09:29:18;4;4;
48887;PMS5003;42598;53.802;-1.632;2023-03-03T09:31:50;6;6;
48887;PMS5003;42598;53.802;-1.632;2023-03-03T09:34:20;5;5;
48887;PMS5003;42598;53.802;-1.632;2023-03-03T09:36:50;6;6;
48887;PMS5003;42598;53.802;-1.632;2023-03-03T09:39:20;4;4;
48887;PMS5003;42598;53.802;-1.632;2023-03-03T09:41:55;6;6;
48887;PMS5003;42598;53.802;-1.632;2023-03-03T09:45:10;6;6;
48887;PMS5003;42598;53.802;-1.632;2023-03-03T09:47:54;5;5;
48887;PMS5003;42598;53.802;-1.632;2023-03-03T09:50:35;4;4;
48887;PMS5003;42598;53.802;-1.632;2023-03-03T09:53:17;6;5;
48887;PMS5003;42598;53.802;-1.632;2023-03-03T09:55:54;4;4;
48887;PMS5003;42598;53.802;-1.632;2023-03-03T09:58:36;4;3;
48887;PMS5003;42598;53.802;-1.632;2023-03-03T10:01:21;4;4;
48887;PMS5003;42598;53.802;-1.632;2023-03-03T10:04:04;4;4;
48887;PMS5003;42598;53.802;-1.632;2023-03-03T10:06:52;3;3;
48887;PMS5003;42598;53.802;-1.632;2023-03-03T10:09:31;4;3;
48887;PMS5003;42598;53.802;-1.632;2023-03-03T10:12:13;3;3;
48887;PMS5003;42598;53.802;-1.632;2023-03-03T10:14:49;3;3;
48887;PMS5003;42598;53.802;-1.632;2023-03-03T10:17:31;3;3;
48887;PMS5003;42598;53.802;-1.632;2023-03-03T10:20:13;2;2;
48887;PMS5003;42598;53.802;-1.632;2023-03-03T10:22:52;6;6;
48887;PMS5003;42598;53.802;-1.632;2023-03-03T10:25:24;4;4;
48887;PMS5003;42598;53.802;-1.632;2023-03-03T10:28:05;2;2;
48887;PMS5003;42598;53.802;-1.632;2023-03-03T10:30:46;3;3;
48887;PMS5003;42598;53.802;-1.632;2023-03-03T10:33:20;3;2;
48887;PMS5003;42598;53.802;-1.632;2023-03-03T10:36:01;2;2;
48887;PMS5003;42598;53.802;-1.632;2023-03-03T10:38:51;4;3;
48887;PMS5003;42598;53.802;-1.632;2023-03-03T10:41:32;3;3;
48887;PMS5003;42598;53.802;-1.632;2023-03-03T10:44:20;1;1;
48887;PMS5003;42598;53.802;-1.632;2023-03-03T10:47:00;2;2;
48887;PMS5003;42598;53.802;-1.632;2023-03-03T10:49:46;2;2;
48887;PMS5003;42598;53.802;-1.632;2023-03-03T10:52:30;2;2;
48887;PMS5003;42598;53.802;-1.632;2023-03-03T10:55:10;3;2;
48887;PMS5003;42598;53.802;-1.632;2023-03-03T10:57:49;2;2;
48887;PMS5003;42598;53.802;-1.632;2023-03-03T11:00:29;3;3;
48887;PMS5003;42598;53.802;-1.632;2023-03-03T11:03:17;2;2;
48887;PMS5003;42598;53.802;-1.632;2023-03-03T11:06:00;2;2;
48887;PMS5003;42598;53.802;-1.632;2023-03-03T11:08:33;2;2;
48887;PMS5003;42598;53.802;-1.632;2023-03-03T11:11:09;1;1;
48887;PMS5003;42598;53.802;-1.632;2023-03-03T11:13:46;1;1;
48887;PMS5003;42598;53.802;-1.632;2023-03-03T11:16:27;2;2;
48887;PMS5003;42598;53.802;-1.632;2023-03-03T11:19:08;2;2;
48887;PMS5003;42598;53.802;-1.632;2023-03-03T11:21:49;2;2;
48887;PMS5003;42598;53.802;-1.632;2023-03-03T11:24:29;1;1;
48887;PMS5003;42598;53.802;-1.632;2023-03-03T11:27:07;2;2;
48887;PMS5003;42598;53.802;-1.632;2023-03-03T11:29:46;2;2;
48887;PMS5003;42598;53.802;-1.632;2023-03-03T11:32:36;2;1;
48887;PMS5003;42598;53.802;-1.632;2023-03-03T11:35:28;1;1;
48887;PMS5003;42598;53.802;-1.632;2023-03-03T11:38:04;1;1;
48887;PMS5003;42598;53.802;-1.632;2023-03-03T11:40:46;1;1;
48887;PMS5003;42598;53.802;-1.632;2023-03-03T11:43:19;2;2;
48887;PMS5003;42598;53.802;-1.632;2023-03-03T11:45:53;2;2;
48887;PMS5003;42598;53.802;-1.632;2023-03-03T11:48:26;2;2;
48887;PMS5003;42598;53.802;-1.632;2023-03-03T11:51:01;1;1;
48887;PMS5003;42598;53.802;-1.632;2023-03-03T11:53:37;1;1;
48887;PMS5003;42598;53.802;-1.632;2023-03-03T11:56:16;3;3;
48887;PMS5003;42598;53.802;-1.632;2023-03-03T11:58:50;1;1;
48887;PMS5003;42598;53.802;-1.632;2023-03-03T12:01:25;2;2;
48887;PMS5003;42598;53.802;-1.632;2023-03-03T12:04:09;2;2;
48887;PMS5003;42598;53.802;-1.632;2023-03-03T12:06:42;3;2;
48887;PMS5003;42598;53.802;-1.632;2023-03-03T12:09:22;4;4;
48887;PMS5003;42598;53.802;-1.632;2023-03-03T12:12:02;1;1;
48887;PMS5003;42598;53.802;-1.632;2023-03-03T12:14:37;5;4;
48887;PMS5003;42598;53.802;-1.632;2023-03-03T12:17:20;3;3;
48887;PMS5003;42598;53.802;-1.632;2023-03-03T12:20:07;5;4;
48887;PMS5003;42598;53.802;-1.632;2023-03-03T12:22:43;2;1;
48887;PMS5003;42598;53.802;-1.632;2023-03-03T12:25:24;1;1;
48887;PMS5003;42598;53.802;-1.632;2023-03-03T12:27:59;3;2;
48887;PMS5003;42598;53.802;-1.632;2023-03-03T12:30:38;2;2;
48887;PMS5003;42598;53.802;-1.632;2023-03-03T12:33:20;1;1;
48887;PMS5003;42598;53.802;-1.632;2023-03-03T12:35:59;1;1;
48887;PMS5003;42598;53.802;-1.632;2023-03-03T12:38:39;1;1;
48887;PMS5003;42598;53.802;-1.632;2023-03-03T12:41:16;2;2;
48887;PMS5003;42598;53.802;-1.632;2023-03-03T12:43:55;2;2;
48887;PMS5003;42598;53.802;-1.632;2023-03-03T12:46:29;6;6;
48887;PMS5003;42598;53.802;-1.632;2023-03-03T12:49:08;6;6;
48887;PMS5003;42598;53.802;-1.632;2023-03-03T12:51:38;3;3;
48887;PMS5003;42598;53.802;-1.632;2023-03-03T12:54:16;4;3;
48887;PMS5003;42598;53.802;-1.632;2023-03-03T12:56:54;4;3;
48887;PMS5003;42598;53.802;-1.632;2023-03-03T12:59:29;4;2;
48887;PMS5003;42598;53.802;-1.632;2023-03-03T13:02:10;3;3;
48887;PMS5003;42598;53.802;-1.632;2023-03-03T13:04:55;4;3;
48887;PMS5003;42598;53.802;-1.632;2023-03-03T13:07:32;2;2;
48887;PMS5003;42598;53.802;-1.632;2023-03-03T13:10:08;4;3;
48887;PMS5003;42598;53.802;-1.632;2023-03-03T13:12:44;3;3;
48887;PMS5003;42598;53.802;-1.632;2023-03-03T13:15:16;4;3;
48887;PMS5003;42598;53.802;-1.632;2023-03-03T13:17:51;4;3;
48887;PMS5003;42598;53.802;-1.632;2023-03-03T13:20:30;3;3;
48887;PMS5003;42598;53.802;-1.632;2023-03-03T13:23:07;3;2;
48887;PMS5003;42598;53.802;-1.632;2023-03-03T13:25:42;2;2;
48887;PMS5003;42598;53.802;-1.632;2023-03-03T13:28:26;2;2;
48887;PMS5003;42598;53.802;-1.632;2023-03-03T13:31:01;3;3;
48887;PMS5003;42598;53.802;-1.632;2023-03-03T13:33:33;3;3;
48887;PMS5003;42598;53.802;-1.632;2023-03-03T13:36:02;5;4;
48887;PMS5003;42598;53.802;-1.632;2023-03-03T13:38:35;7;6;
48887;PMS5003;42598;53.802;-1.632;2023-03-03T13:41:08;4;3;
48887;PMS5003;42598;53.802;-1.632;2023-03-03T13:43:44;4;3;
48887;PMS5003;42598;53.802;-1.632;2023-03-03T13:46:16;5;5;
48887;PMS5003;42598;53.802;-1.632;2023-03-03T13:48:56;4;4;
48887;PMS5003;42598;53.802;-1.632;2023-03-03T13:51:36;7;7;
48887;PMS5003;42598;53.802;-1.632;2023-03-03T13:54:13;7;6;
48887;PMS5003;42598;53.802;-1.632;2023-03-03T13:57:06;6;6;
48887;PMS5003;42598;53.802;-1.632;2023-03-03T13:59:45;7;6;
48887;PMS5003;42598;53.802;-1.632;2023-03-03T14:02:27;6;6;
48887;PMS5003;42598;53.802;-1.632;2023-03-03T14:05:11;3;3;
48887;PMS5003;42598;53.802;-1.632;2023-03-03T14:07:42;4;3;
48887;PMS5003;42598;53.802;-1.632;2023-03-03T14:10:17;7;6;
48887;PMS5003;42598;53.802;-1.632;2023-03-03T14:12:50;7;6;
48887;PMS5003;42598;53.802;-1.632;2023-03-03T14:15:26;4;4;
48887;PMS5003;42598;53.802;-1.632;2023-03-03T14:18:02;3;3;
48887;PMS5003;42598;53.802;-1.632;2023-03-03T14:20:50;2;2;
48887;PMS5003;42598;53.802;-1.632;2023-03-03T14:23:19;5;3;
48887;PMS5003;42598;53.802;-1.632;2023-03-03T14:25:53;2;2;
48887;PMS5003;42598;53.802;-1.632;2023-03-03T14:28:23;4;3;
48887;PMS5003;42598;53.802;-1.632;2023-03-03T14:30:52;2;2;
48887;PMS5003;42598;53.802;-1.632;2023-03-03T14:33:25;3;3;
48887;PMS5003;42598;53.802;-1.632;2023-03-03T14:36:11;4;4;
48887;PMS5003;42598;53.802;-1.632;2023-03-03T14:38:40;4;4;
48887;PMS5003;42598;53.802;-1.632;2023-03-03T14:41:14;3;2;
48887;PMS5003;42598;53.802;-1.632;2023-03-03T14:43:45;3;3;
48887;PMS5003;42598;53.802;-1.632;2023-03-03T14:46:29;3;3;
48887;PMS5003;42598;53.802;-1.632;2023-03-03T14:48:59;2;2;
48887;PMS5003;42598;53.802;-1.632;2023-03-03T14:51:28;3;3;
48887;PMS5003;42598;53.802;-1.632;2023-03-03T14:53:58;4;3;
48887;PMS5003;42598;53.802;-1.632;2023-03-03T14:56:26;4;3;
48887;PMS5003;42598;53.802;-1.632;2023-03-03T14:59:14;2;2;
48887;PMS5003;42598;53.802;-1.632;2023-03-03T15:01:44;4;3;
48887;PMS5003;42598;53.802;-1.632;2023-03-03T15:04:22;2;2;
48887;PMS5003;42598;53.802;-1.632;2023-03-03T15:06:52;3;3;
48887;PMS5003;42598;53.802;-1.632;2023-03-03T15:09:23;4;3;
48887;PMS5003;42598;53.802;-1.632;2023-03-03T15:11:57;2;2;
48887;PMS5003;42598;53.802;-1.632;2023-03-03T15:14:28;3;3;
48887;PMS5003;42598;53.802;-1.632;2023-03-03T15:19:58;4;2;
48887;PMS5003;42598;53.802;-1.632;2023-03-03T15:22:38;3;2;
48887;PMS5003;42598;53.802;-1.632;2023-03-03T15:25:13;2;1;
48887;PMS5003;42598;53.802;-1.632;2023-03-03T15:27:48;3;2;
48887;PMS5003;42598;53.802;-1.632;2023-03-03T15:30:27;2;2;
48887;PMS5003;42598;53.802;-1.632;2023-03-03T15:33:04;4;3;
48887;PMS5003;42598;53.802;-1.632;2023-03-03T15:35:44;4;2;
48887;PMS5003;42598;53.802;-1.632;2023-03-03T15:38:19;5;3;
48887;PMS5003;42598;53.802;-1.632;2023-03-03T15:40:59;5;5;
48887;PMS5003;42598;53.802;-1.632;2023-03-03T15:43:36;4;2;
48887;PMS5003;42598;53.802;-1.632;2023-03-03T15:46:12;3;2;
48887;PMS5003;42598;53.802;-1.632;2023-03-03T15:48:51;3;3;
48887;PMS5003;42598;53.802;-1.632;2023-03-03T15:51:30;2;2;
48887;PMS5003;42598;53.802;-1.632;2023-03-03T15:54:14;2;2;
48887;PMS5003;42598;53.802;-1.632;2023-03-03T15:56:51;3;2;
48887;PMS5003;42598;53.802;-1.632;2023-03-03T15:59:40;2;2;
48887;PMS5003;42598;53.802;-1.632;2023-03-03T16:02:20;5;4;
48887;PMS5003;42598;53.802;-1.632;2023-03-03T16:04:52;4;3;
48887;PMS5003;42598;53.802;-1.632;2023-03-03T16:07:28;4;4;
48887;PMS5003;42598;53.802;-1.632;2023-03-03T16:10:11;3;3;
48887;PMS5003;42598;53.802;-1.632;2023-03-03T16:12:48;4;4;
48887;PMS5003;42598;53.802;-1.632;2023-03-03T16:15:25;3;3;
48887;PMS5003;42598;53.802;-1.632;2023-03-03T16:18:05;4;3;
48887;PMS5003;42598;53.802;-1.632;2023-03-03T16:20:42;5;4;
48887;PMS5003;42598;53.802;-1.632;2023-03-03T16:23:22;4;4;
48887;PMS5003;42598;53.802;-1.632;2023-03-03T16:26:13;5;4;
48887;PMS5003;42598;53.802;-1.632;2023-03-03T16:28:52;4;4;
48887;PMS5003;42598;53.802;-1.632;2023-03-03T16:31:31;5;4;
48887;PMS5003;42598;53.802;-1.632;2023-03-03T16:34:04;7;6;
48887;PMS5003;42598;53.802;-1.632;2023-03-03T16:36:45;4;4;
48887;PMS5003;42598;53.802;-1.632;2023-03-03T16:39:24;6;4;
48887;PMS5003;42598;53.802;-1.632;2023-03-03T16:42:00;9;8;
48887;PMS5003;42598;53.802;-1.632;2023-03-03T16:44:33;5;4;
48887;PMS5003;42598;53.802;-1.632;2023-03-03T16:47:15;3;3;
48887;PMS5003;42598;53.802;-1.632;2023-03-03T16:49:51;3;3;
48887;PMS5003;42598;53.802;-1.632;2023-03-03T16:52:30;4;4;
48887;PMS5003;42598;53.802;-1.632;2023-03-03T16:55:08;7;6;
48887;PMS5003;42598;53.802;-1.632;2023-03-03T16:57:43;4;4;
48887;PMS5003;42598;53.802;-1.632;2023-03-03T17:00:23;4;3;
48887;PMS5003;42598;53.802;-1.632;2023-03-03T17:03:02;5;4;
48887;PMS5003;42598;53.802;-1.632;2023-03-03T17:05:46;6;5;
48887;PMS5003;42598;53.802;-1.632;2023-03-03T17:08:23;5;4;
48887;PMS5003;42598;53.802;-1.632;2023-03-03T17:11:04;3;3;
48887;PMS5003;42598;53.802;-1.632;2023-03-03T17:13:46;6;5;